Stena Suede — ZCEF5 — position and weather

sailwx.info

Track history (hours):
 
Tides and Currents Weather Stations Pressure Air Temp Water Temp Dewpoint Dewpoint Depression Visibility Wind Speed Wind Dir Waves Ship Positions

Stena Suede

Last reported at 2015-Aug-06 02:33 UTC. Time now 2015-Sep-03 06:51 UTC.
Position N 35°46' W 012°51'.
Warning: this ship's position is 28 days out of date.

Length 274 m; draft 9.1 m.

Type: Tanker. MMSI: 310622000.

Date/timePositionNaut miles runAvg speedWind from/ knotsBaromVisibWave heightAir tempDewpointWater temp
2015-Aug-06 02:33N 35°46' W 012°51'1713.0
2015-Aug-06 01:17N 36°02' W 012°46'1513.0
2015-Aug-06 00:09N 36°16' W 012°42'813.3
2015-Aug-05 23:33N 36°24' W 012°40'1413.5
2015-Aug-05 22:33N 36°37' W 012°36'1313.3
2015-Aug-05 21:33N 36°50' W 012°32'1313.1
2015-Aug-05 20:33N 37°03' W 012°29'1313.2
2015-Aug-05 19:33N 37°16' W 012°25'1313.0
2015-Aug-05 18:33N 37°28' W 012°21'1412.7
2015-Aug-05 17:25N 37°42' W 012°17'1112.6
2015-Aug-05 16:33N 37°53' W 012°14'  
2015-Aug-02 17:11N 49°49' W 003°26'813.1
2015-Aug-02 16:33N 49°53' W 003°15'1414.3
2015-Aug-02 15:33N 49°58' W 002°54'1615.9
2015-Aug-02 14:33N 50°02' W 002°31'1616.1
2015-Aug-02 13:33N 50°07' W 002°07'4111.9
2015-Aug-02 10:07N 50°18' W 001°04'5 9.0
2015-Aug-02 09:33N 50°19' W 000°57'2410.2
2015-Aug-02 07:13N 50°25' W 000°21'1313.3
2015-Aug-02 06:13N 50°29' W 000°01'1114.0
2015-Aug-02 05:25N 50°32' E 000°16'1214.1
2015-Aug-02 04:34N 50°35' E 000°35'1313.4
2015-Aug-02 03:33N 50°43' E 000°52'1212.2
2015-Aug-02 02:33N 50°49' E 001°08'1010.5
2015-Aug-02 01:33N 50°56' E 001°20'9 9.1
2015-Aug-02 00:34N 51°03' E 001°30'9 9.4
2015-Aug-01 23:33N 51°10' E 001°41'1111.4
2015-Aug-01 22:33N 51°19' E 001°51'1413.8
2015-Aug-01 21:34N 51°31' E 002°03'1414.1
2015-Aug-01 20:34N 51°41' E 002°19'1413.9
2015-Aug-01 19:33N 51°51' E 002°34'1312.8
2015-Aug-01 18:33N 52°01' E 002°48'1312.1
2015-Aug-01 17:31N 52°03' E 003°08'1212.2
2015-Aug-01 16:33N 52°04' E 003°28'1211.8
2015-Aug-01 15:33N 52°03' E 003°47'9 9.1
2015-Aug-01 14:33N 52°00' E 004°00'8 8.2
2015-Aug-01 13:33N 51°56' E 004°12'1 0.7
2015-Aug-01 12:33N 51°55' E 004°12'0 0.0
2015-Aug-01 11:33N 51°55' E 004°12'0 0.0
2015-Aug-01 10:33N 51°55' E 004°12'0 0.0
2015-Aug-01 09:33N 51°55' E 004°12'0 0.0
2015-Aug-01 08:30N 51°55' E 004°12'0 0.0
2015-Aug-01 07:30N 51°55' E 004°12'0 0.0
2015-Aug-01 06:33N 51°55' E 004°12'0 0.0
2015-Aug-01 05:33N 51°55' E 004°12'0 0.0
2015-Aug-01 04:33N 51°55' E 004°12'0 0.0
2015-Aug-01 03:23N 51°55' E 004°12'0 0.0
2015-Aug-01 02:32N 51°55' E 004°12'0 0.0
2015-Aug-01 01:33N 51°55' E 004°12'0 0.0
2015-Aug-01 00:30N 51°55' E 004°12'0 0.0
2015-Jul-31 23:33N 51°55' E 004°12'0 0.0
2015-Jul-31 22:33N 51°55' E 004°12'0 0.0
2015-Jul-31 21:32N 51°55' E 004°12'0 0.0
2015-Jul-31 20:29N 51°55' E 004°12'0 0.0
2015-Jul-31 19:30N 51°55' E 004°12'0 0.0
2015-Jul-31 18:33N 51°55' E 004°12'0 0.0
2015-Jul-31 17:29N 51°55' E 004°12'0 0.0
2015-Jul-31 16:32N 51°55' E 004°12'0 0.0
2015-Jul-31 15:33N 51°55' E 004°12'0 0.0
2015-Jul-31 14:32N 51°55' E 004°12'0 0.0
2015-Jul-31 13:32N 51°55' E 004°12'0 0.0
2015-Jul-31 12:33N 51°55' E 004°12'0 0.0
2015-Jul-31 11:32N 51°55' E 004°12'0 0.0
2015-Jul-31 10:32N 51°55' E 004°12'0 0.0
2015-Jul-31 09:33N 51°55' E 004°12'1 1.2
2015-Jul-31 08:33N 51°56' E 004°11'5 4.6
2015-Jul-31 07:33N 51°59' E 004°05'1010.3
2015-Jul-31 06:33N 52°01' E 003°49'8 7.9
2015-Jul-31 05:33N 52°00' E 003°36'1010.2
2015-Jul-31 04:32N 51°59' E 003°19'5012.6
2015-Jul-31 00:33N 51°30' E 002°13'1615.6
2015-Jul-30 23:33N 51°18' E 001°57'1616.0
2015-Jul-30 22:33N 51°06' E 001°40'1515.3
2015-Jul-30 21:33N 50°54' E 001°25'3114.0
2015-Jul-30 19:21N 50°29' E 000°57'  
2015-Jul-28 00:08N 39°24' W 011°06'813.2
2015-Jul-27 23:33N 39°17' W 011°09'1313.2
2015-Jul-27 22:33N 39°04' W 011°13'1313.0
2015-Jul-27 21:33N 38°52' W 011°18'1312.9
2015-Jul-27 20:33N 38°39' W 011°22'1612.9
2015-Jul-27 19:21N 38°24' W 011°27'2412.8
2015-Jul-27 17:26N 38°01' W 011°36'2412.8
2015-Jul-27 15:32N 37°38' W 011°44'1613.2
2015-Jul-27 14:19N 37°22' W 011°50'1013.3
2015-Jul-27 13:33N 37°12' W 011°53'  
Track history (hours):
 
Tides and Currents Weather Stations Pressure Air Temp Water Temp Dewpoint Dewpoint Depression Visibility Wind Speed Wind Dir Waves Ship Positions

Stena Suede

Last reported at 2015-Aug-06 02:33 UTC. Time now 2015-Sep-03 06:51 UTC.
Position N 35°46' W 012°51'.
Warning: this ship's position is 28 days out of date.

Length 274 m; draft 9.1 m.

Type: Tanker. MMSI: 310622000.

Date/timePositionNaut miles runAvg speedWind from/ knotsBaromVisibWave heightAir tempDewpointWater temp
2015-Aug-06 02:33N 35°46' W 012°51'1713.0
2015-Aug-06 01:17N 36°02' W 012°46'1513.0
2015-Aug-06 00:09N 36°16' W 012°42'813.3
2015-Aug-05 23:33N 36°24' W 012°40'1413.5
2015-Aug-05 22:33N 36°37' W 012°36'1313.3
2015-Aug-05 21:33N 36°50' W 012°32'1313.1
2015-Aug-05 20:33N 37°03' W 012°29'1313.2
2015-Aug-05 19:33N 37°16' W 012°25'1313.0
2015-Aug-05 18:33N 37°28' W 012°21'1412.7
2015-Aug-05 17:25N 37°42' W 012°17'1112.6
2015-Aug-05 16:33N 37°53' W 012°14'  
2015-Aug-02 17:11N 49°49' W 003°26'813.1
2015-Aug-02 16:33N 49°53' W 003°15'1414.3
2015-Aug-02 15:33N 49°58' W 002°54'1615.9
2015-Aug-02 14:33N 50°02' W 002°31'1616.1
2015-Aug-02 13:33N 50°07' W 002°07'4111.9
2015-Aug-02 10:07N 50°18' W 001°04'5 9.0
2015-Aug-02 09:33N 50°19' W 000°57'2410.2
2015-Aug-02 07:13N 50°25' W 000°21'1313.3
2015-Aug-02 06:13N 50°29' W 000°01'1114.0
2015-Aug-02 05:25N 50°32' E 000°16'1214.1
2015-Aug-02 04:34N 50°35' E 000°35'1313.4
2015-Aug-02 03:33N 50°43' E 000°52'1212.2
2015-Aug-02 02:33N 50°49' E 001°08'1010.5
2015-Aug-02 01:33N 50°56' E 001°20'9 9.1
2015-Aug-02 00:34N 51°03' E 001°30'9 9.4
2015-Aug-01 23:33N 51°10' E 001°41'1111.4
2015-Aug-01 22:33N 51°19' E 001°51'1413.8
2015-Aug-01 21:34N 51°31' E 002°03'1414.1
2015-Aug-01 20:34N 51°41' E 002°19'1413.9
2015-Aug-01 19:33N 51°51' E 002°34'1312.8
2015-Aug-01 18:33N 52°01' E 002°48'1312.1
2015-Aug-01 17:31N 52°03' E 003°08'1212.2
2015-Aug-01 16:33N 52°04' E 003°28'1211.8
2015-Aug-01 15:33N 52°03' E 003°47'9 9.1
2015-Aug-01 14:33N 52°00' E 004°00'8 8.2
2015-Aug-01 13:33N 51°56' E 004°12'1 0.7
2015-Aug-01 12:33N 51°55' E 004°12'0 0.0
2015-Aug-01 11:33N 51°55' E 004°12'0 0.0
2015-Aug-01 10:33N 51°55' E 004°12'0 0.0
2015-Aug-01 09:33N 51°55' E 004°12'0 0.0
2015-Aug-01 08:30N 51°55' E 004°12'0 0.0
2015-Aug-01 07:30N 51°55' E 004°12'0 0.0
2015-Aug-01 06:33N 51°55' E 004°12'0 0.0
2015-Aug-01 05:33N 51°55' E 004°12'0 0.0
2015-Aug-01 04:33N 51°55' E 004°12'0 0.0
2015-Aug-01 03:23N 51°55' E 004°12'0 0.0
2015-Aug-01 02:32N 51°55' E 004°12'0 0.0
2015-Aug-01 01:33N 51°55' E 004°12'0 0.0
2015-Aug-01 00:30N 51°55' E 004°12'0 0.0
2015-Jul-31 23:33N 51°55' E 004°12'0 0.0
2015-Jul-31 22:33N 51°55' E 004°12'0 0.0
2015-Jul-31 21:32N 51°55' E 004°12'0 0.0
2015-Jul-31 20:29N 51°55' E 004°12'0 0.0
2015-Jul-31 19:30N 51°55' E 004°12'0 0.0
2015-Jul-31 18:33N 51°55' E 004°12'0 0.0
2015-Jul-31 17:29N 51°55' E 004°12'0 0.0
2015-Jul-31 16:32N 51°55' E 004°12'0 0.0
2015-Jul-31 15:33N 51°55' E 004°12'0 0.0
2015-Jul-31 14:32N 51°55' E 004°12'0 0.0
2015-Jul-31 13:32N 51°55' E 004°12'0 0.0
2015-Jul-31 12:33N 51°55' E 004°12'0 0.0
2015-Jul-31 11:32N 51°55' E 004°12'0 0.0
2015-Jul-31 10:32N 51°55' E 004°12'0 0.0
2015-Jul-31 09:33N 51°55' E 004°12'1 1.2
2015-Jul-31 08:33N 51°56' E 004°11'5 4.6
2015-Jul-31 07:33N 51°59' E 004°05'1010.3
2015-Jul-31 06:33N 52°01' E 003°49'8 7.9
2015-Jul-31 05:33N 52°00' E 003°36'1010.2
2015-Jul-31 04:32N 51°59' E 003°19'5012.6
2015-Jul-31 00:33N 51°30' E 002°13'1615.6
2015-Jul-30 23:33N 51°18' E 001°57'1616.0
2015-Jul-30 22:33N 51°06' E 001°40'1515.3
2015-Jul-30 21:33N 50°54' E 001°25'3114.0
2015-Jul-30 19:21N 50°29' E 000°57'  
2015-Jul-28 00:08N 39°24' W 011°06'813.2
2015-Jul-27 23:33N 39°17' W 011°09'1313.2
2015-Jul-27 22:33N 39°04' W 011°13'1313.0
2015-Jul-27 21:33N 38°52' W 011°18'1312.9
2015-Jul-27 20:33N 38°39' W 011°22'1612.9
2015-Jul-27 19:21N 38°24' W 011°27'2412.8
2015-Jul-27 17:26N 38°01' W 011°36'2412.8
2015-Jul-27 15:32N 37°38' W 011°44'1613.2
2015-Jul-27 14:19N 37°22' W 011°50'1013.3
2015-Jul-27 13:33N 37°12' W 011°53'  

Dump ship's entire track history